Time;durP1;ratioP1;P1;durP2;ratioP2;P2;SDS_P1;SDS_P2;PMS_P1;PMS_P2;Temp;Humidity;BMP_temperature;BMP_pressure;BME280_temperature;BME280_humidity;BME280_pressure;Samples;Min_cycle;Max_cycle;Signal;HPM_P1;HPM_P2
2021/07/21 00:01:20;;;;;;;34.58;21.98;;;;;;;20.48;86.56;98760.79;129788;1093;22543;-60
2021/07/21 00:03:49;;;;;;;33.30;21.33;;;;;;;20.47;86.65;98759.17;129790;1092;22560;-60
2021/07/21 00:06:18;;;;;;;42.08;24.20;;;;;;;20.44;86.36;98749.59;129638;1093;113993;-59
2021/07/21 00:08:47;;;;;;;35.33;24.55;;;;;;;20.43;86.25;98763.77;129773;1093;22543;-59
2021/07/21 00:14:11;;;;;;;33.43;23.65;;;;;;;20.39;86.47;98751.75;129769;1093;23084;-59
2021/07/21 00:16:43;;;;;;;30.88;23.60;;;;;;;20.37;86.41;98754.05;129692;1091;114325;-60
2021/07/21 00:21:59;;;;;;;29.45;21.45;;;;;;;20.34;86.71;98760.25;129722;1093;115046;-59
2021/07/21 00:24:28;;;;;;;26.03;21.68;;;;;;;20.35;86.97;98767.38;129738;1093;22567;-60
2021/07/21 00:26:57;;;;;;;31.75;19.85;;;;;;;20.35;86.88;98764.61;129755;1093;23151;-59
2021/07/21 00:29:26;;;;;;;26.30;19.60;;;;;;;20.37;87.02;98770.65;129662;1092;114146;-60
2021/07/21 00:31:55;;;;;;;27.38;19.90;;;;;;;20.38;87.03;98770.31;129762;1093;22586;-60
2021/07/21 00:34:24;;;;;;;29.35;21.65;;;;;;;20.40;86.88;98772.73;129624;1093;114352;-60
2021/07/21 00:36:57;;;;;;;27.23;21.08;;;;;;;20.38;86.88;98767.55;129778;1093;22591;-60
2021/07/21 00:39:26;;;;;;;31.78;20.98;;;;;;;20.39;86.75;98763.63;129104;1092;22664;-60
2021/07/21 00:41:55;;;;;;;26.40;20.65;;;;;;;20.40;87.03;98758.91;125095;1092;114421;-59
2021/07/21 00:44:24;;;;;;;26.45;20.80;;;;;;;20.40;86.90;98765.25;129730;1092;23745;-60
2021/07/21 00:46:54;;;;;;;30.35;21.25;;;;;;;20.40;86.97;98759.72;129639;1093;115301;-60
2021/07/21 00:49:25;;;;;;;28.83;21.75;;;;;;;20.35;86.82;98748.02;129738;1093;22614;-61
2021/07/21 00:51:55;;;;;;;30.53;22.05;;;;;;;20.36;86.58;98757.96;129724;1093;22616;-59
2021/07/21 00:54:24;;;;;;;28.95;22.30;;;;;;;20.33;86.55;98751.15;129629;1093;114045;-60
2021/07/21 00:56:53;;;;;;;29.95;21.58;;;;;;;20.31;86.65;98755.39;129738;1093;23889;-60
2021/07/21 00:59:23;;;;;;;30.08;22.58;;;;;;;20.25;86.81;98737.38;129624;1093;115193;-61
2021/07/21 01:01:52;;;;;;;28.85;22.40;;;;;;;20.29;86.77;98743.86;129721;1092;22609;-59
2021/07/21 01:04:21;;;;;;;32.55;21.73;;;;;;;20.26;86.69;98744.53;129680;1093;137016;-60
2021/07/21 01:07:01;;;;;;;32.85;22.60;;;;;;;20.24;86.87;98746.83;129761;1093;22606;-59
2021/07/21 01:09:31;;;;;;;30.43;21.05;;;;;;;20.24;86.88;98744.88;129727;1093;23071;-60
2021/07/21 01:12:28;;;;;;;31.68;24.13;;;;;;;20.25;86.80;98734.62;129649;1093;113937;-60
2021/07/21 01:15:03;;;;;;;30.30;21.93;;;;;;;20.26;86.87;98741.77;129725;1093;22545;-60
2021/07/21 01:17:54;;;;;;;28.33;22.73;;;;;;;20.27;86.93;98738.66;129605;1093;114103;-60
2021/07/21 01:20:42;;;;;;;34.05;22.85;;;;;;;20.30;87.03;98734.41;129782;1093;22990;-60
2021/07/21 01:23:39;;;;;;;35.45;23.13;;;;;;;20.31;87.09;98736.03;129656;1092;114154;-60
2021/07/21 01:26:10;;;;;;;30.48;23.08;;;;;;;20.31;86.76;98736.84;129766;1093;23463;-60
2021/07/21 01:28:46;;;;;;;35.03;24.70;;;;;;;20.30;86.88;98732.45;129656;1092;114307;-60
2021/07/21 01:31:24;;;;;;;31.35;23.43;;;;;;;20.29;86.76;98730.84;129743;1093;24187;-60
2021/07/21 01:33:55;;;;;;;36.38;24.18;;;;;;;20.28;86.72;98734.75;129711;1093;22569;-60
2021/07/21 01:36:27;;;;;;;32.45;24.05;;;;;;;20.29;86.82;98730.84;129646;1093;113946;-59
2021/07/21 01:39:03;;;;;;;33.50;24.33;;;;;;;20.29;87.04;98730.02;129751;1093;22568;-60
2021/07/21 01:41:40;;;;;;;32.13;23.45;;;;;;;20.28;86.81;98731.98;129650;1093;114300;-60
2021/07/21 01:44:11;;;;;;;37.40;24.10;;;;;;;20.29;86.79;98733.60;129740;1093;22557;-60
2021/07/21 01:46:41;;;;;;;26.83;21.95;;;;;;;20.28;86.84;98733.94;129615;1095;114649;-60
2021/07/21 01:49:11;;;;;;;28.18;23.18;;;;;;;20.27;86.83;98730.36;129664;1096;22649;-60
2021/07/21 01:51:44;;;;;;;34.93;23.65;;;;;;;20.24;86.86;98728.27;129699;1095;22581;-60
2021/07/21 01:54:13;;;;;;;28.73;21.95;;;;;;;20.22;86.62;98726.99;129620;1095;116835;-60
2021/07/21 01:56:59;;;;;;;33.68;24.13;;;;;;;20.19;86.60;98722.97;129425;1096;23635;-60
2021/07/21 01:59:30;;;;;;;27.20;22.38;;;;;;;20.18;86.46;98731.61;129564;1095;114216;-60
2021/07/21 02:02:11;;;;;;;28.13;22.95;;;;;;;20.16;86.64;98739.44;129726;1096;22713;-60
2021/07/21 02:04:47;;;;;;;35.45;23.43;;;;;;;20.15;86.62;98735.05;129396;1096;114638;-60
2021/07/21 02:07:16;;;;;;;29.93;23.65;;;;;;;20.13;86.41;98733.44;129442;1095;22560;-60
2021/07/21 02:09:46;;;;;;;32.50;25.38;;;;;;;20.12;86.37;98733.77;129735;1096;22596;-60
2021/07/21 02:12:19;;;;;;;32.23;24.00;;;;;;;20.12;86.21;98742.88;129664;1095;114388;-60
2021/07/21 02:14:48;;;;;;;28.60;23.70;;;;;;;20.10;85.99;98738.83;129704;1096;23168;-60
2021/07/21 02:17:39;;;;;;;25.03;20.93;;;;;;;20.08;85.88;98739.16;129576;1095;114613;-60
2021/07/21 02:20:09;;;;;;;29.23;22.55;;;;;;;20.09;85.79;98737.20;129732;1093;23679;-60
2021/07/21 02:22:47;;;;;;;29.73;22.68;;;;;;;20.09;85.46;98735.25;129676;1093;114475;-60
2021/07/21 02:25:45;;;;;;;27.40;21.63;;;;;;;20.10;85.27;98738.83;129754;1093;23213;-60
2021/07/21 02:28:17;;;;;;;29.10;22.05;;;;;;;20.09;85.28;98738.02;129656;1092;114197;-60
2021/07/21 02:30:48;;;;;;;27.20;20.58;;;;;;;20.08;84.79;98736.40;129779;1093;23242;-60
2021/07/21 02:33:23;;;;;;;26.43;21.90;;;;;;;20.06;84.69;98735.92;129769;1093;22578;-60
2021/07/21 02:35:52;;;;;;;29.65;21.23;;;;;;;20.05;84.33;98737.07;129666;1093;114344;-60
2021/07/21 02:38:20;;;;;;;27.75;21.00;;;;;;;20.01;83.97;98735.34;129738;1092;22569;-60
2021/07/21 02:40:54;;;;;;;27.43;21.88;;;;;;;19.98;83.58;98738.78;129607;1093;114201;-60
2021/07/21 02:43:26;;;;;;;29.75;20.93;;;;;;;19.95;83.70;98743.03;129784;1092;22643;-60
2021/07/21 02:45:57;;;;;;;28.68;21.20;;;;;;;19.94;83.65;98740.59;129714;1092;22597;-60
2021/07/21 02:48:27;;;;;;;27.60;20.38;;;;;;;19.90;83.25;98737.72;129601;1092;114055;-60
2021/07/21 02:50:58;;;;;;;27.85;20.93;;;;;;;19.87;83.30;98746.69;129785;1093;22531;-60
2021/07/21 02:53:33;;;;;;;27.13;20.25;;;;;;;19.84;83.16;98752.89;129672;1093;114309;-60
2021/07/21 02:56:30;;;;;;;31.88;21.23;;;;;;;19.81;82.90;98756.32;129706;1093;22536;-60
2021/07/21 02:59:03;;;;;;;26.90;21.40;;;;;;;19.77;82.38;98758.13;129662;1093;114266;-60
2021/07/21 03:01:33;;;;;;;25.35;20.70;;;;;;;19.76;82.82;98762.07;129770;1093;23510;-60
2021/07/21 03:04:03;;;;;;;27.00;21.40;;;;;;;19.74;83.04;98759.64;129755;1093;22509;-60
2021/07/21 03:06:33;;;;;;;26.80;20.30;;;;;;;19.73;83.07;98762.73;129613;1092;114039;-60
2021/07/21 03:09:03;;;;;;;26.48;21.85;;;;;;;19.73;83.00;98762.73;129790;1093;22539;-60
2021/07/21 03:11:40;;;;;;;33.05;22.38;;;;;;;19.70;83.16;98769.74;129672;1093;114534;-59
2021/07/21 03:14:09;;;;;;;28.35;22.23;;;;;;;19.69;82.98;98772.84;129731;1093;22569;-59
2021/07/21 03:16:46;;;;;;;27.18;21.95;;;;;;;19.66;83.01;98767.98;129690;1092;114509;-59
2021/07/21 03:19:53;;;;;;;;;;;;;;;19.61;83.29;98777.30;129829;1093;22558;-60
2021/07/21 03:22:24;;;;;;;24.95;21.08;;;;;;;19.58;83.49;98782.68;129920;1093;100476;-60
2021/07/21 03:25:04;;;;;;;28.20;22.55;;;;;;;19.54;83.70;98776.20;129816;1093;23437;-60
2021/07/21 03:27:39;;;;;;;28.60;21.75;;;;;;;19.49;83.73;98785.48;129849;1092;23596;-60
2021/07/21 03:30:19;;;;;;;28.00;20.40;;;;;;;19.42;83.93;98785.18;129761;1093;114124;-63
2021/07/21 03:32:53;;;;;;;24.78;20.88;;;;;;;19.36;84.07;98794.79;130049;1093;22599;-63
2021/07/21 03:35:26;;;;;;;26.88;21.33;;;;;;;19.32;84.49;98802.15;129742;1092;114148;-62
2021/07/21 03:37:57;;;;;;;28.93;19.90;;;;;;;19.28;84.66;98803.95;129778;1093;22570;-62
2021/07/21 03:40:28;;;;;;;26.35;19.88;;;;;;;19.23;84.56;98804.94;129738;1093;114175;-59
2021/07/21 03:43:09;;;;;;;23.57;19.20;;;;;;;19.16;84.91;98799.14;129979;1093;23833;-60
2021/07/21 03:45:44;;;;;;;23.18;18.55;;;;;;;19.19;85.35;98811.48;129852;1093;22565;-60
2021/07/21 03:48:28;;;;;;;25.38;19.63;;;;;;;19.15;85.79;98819.61;129760;1093;113965;-59
2021/07/21 03:51:07;;;;;;;22.15;17.53;;;;;;;19.04;85.39;98804.55;129994;1093;23317;-60
2021/07/21 03:53:54;;;;;;;25.48;18.68;;;;;;;19.08;85.91;98813.77;129927;1093;114988;-59
2021/07/21 03:56:24;;;;;;;24.23;19.55;;;;;;;19.05;86.41;98815.24;129860;1093;22534;-59
2021/07/21 03:59:01;;;;;;;26.33;19.25;;;;;;;19.04;86.28;98818.36;129906;1093;115122;-60
2021/07/21 04:01:33;;;;;;;25.58;19.45;;;;;;;19.03;86.86;98820.31;130095;1092;22554;-59
2021/07/21 04:04:04;;;;;;;26.70;19.93;;;;;;;19.02;86.77;98810.41;129917;1093;22548;-62
2021/07/21 04:06:34;;;;;;;26.63;19.88;;;;;;;19.00;86.69;98817.39;129912;1092;113967;-59
2021/07/21 04:09:17;;;;;;;25.00;19.55;;;;;;;18.97;86.80;98813.34;129823;1092;22577;-61
2021/07/21 04:11:49;;;;;;;26.35;20.25;;;;;;;18.94;86.76;98808.47;129702;1093;114791;-61
2021/07/21 04:14:22;;;;;;;27.20;19.65;;;;;;;18.92;87.10;98799.70;129829;1093;22638;-61
2021/07/21 04:17:17;;;;;;;25.28;20.50;;;;;;;18.89;86.95;98805.91;129965;1092;115095;-61
2021/07/21 04:19:47;;;;;;;27.60;21.25;;;;;;;18.87;87.07;98804.61;129995;1093;22574;-61
2021/07/21 04:22:16;;;;;;;23.85;20.23;;;;;;;18.84;87.03;98810.78;129923;1093;115847;-61
2021/07/21 04:24:50;;;;;;;31.28;19.83;;;;;;;18.83;87.08;98807.22;130063;1092;23109;-61
2021/07/21 04:27:20;;;;;;;25.98;20.93;;;;;;;18.83;87.13;98812.73;130045;1093;22689;-61
2021/07/21 04:30:10;;;;;;;23.88;20.05;;;;;;;18.83;87.29;98822.97;129753;1093;116365;-61
2021/07/21 04:32:41;;;;;;;27.78;21.05;;;;;;;18.83;87.20;98817.45;129851;1092;22541;-61
2021/07/21 04:35:13;;;;;;;27.35;21.83;;;;;;;18.82;87.14;98819.39;129683;1093;115626;-62
2021/07/21 04:37:47;;;;;;;26.70;20.95;;;;;;;18.83;86.85;98817.45;129983;1093;22614;-61
2021/07/21 04:40:18;;;;;;;28.68;21.70;;;;;;;18.84;86.90;98821.83;127690;1093;115871;-61
2021/07/21 04:43:03;;;;;;;26.63;22.60;;;;;;;18.84;86.76;98822.64;130002;1093;22692;-61
2021/07/21 04:45:33;;;;;;;26.03;20.70;;;;;;;18.83;86.54;98826.54;129792;1093;22614;-61
2021/07/21 04:48:02;;;;;;;27.35;21.60;;;;;;;18.84;86.46;98819.06;129748;1093;114329;-61
2021/07/21 04:50:42;;;;;;;26.90;21.28;;;;;;;18.84;86.13;98822.64;130012;1093;23444;-61
2021/07/21 04:53:13;;;;;;;26.20;20.65;;;;;;;18.83;85.91;98820.20;129944;1093;114567;-61
2021/07/21 04:58:17;;;;;;;26.35;20.30;;;;;;;18.79;85.73;98822.80;125444;1091;22797;-59
2021/07/21 05:00:51;;;;;;;23.90;18.45;;;;;;;18.78;85.20;98820.38;125310;1093;24573;-60
2021/07/21 05:03:22;;;;;;;25.08;18.75;;;;;;;18.74;85.26;98820.24;129804;1093;22564;-60
2021/07/21 05:05:54;;;;;;;22.93;17.73;;;;;;;18.73;85.24;98815.86;129727;1093;113868;-60
2021/07/21 05:08:26;;;;;;;20.55;17.45;;;;;;;18.70;84.90;98820.08;130049;1093;22619;-60
2021/07/21 05:11:14;;;;;;;21.30;17.08;;;;;;;18.67;84.80;98826.25;129936;1093;114276;-60
2021/07/21 05:13:44;;;;;;;19.45;16.10;;;;;;;18.65;84.72;98823.00;129777;1093;23444;-59
2021/07/21 05:16:15;;;;;;;22.90;15.53;;;;;;;18.63;84.42;98825.28;129642;1093;113745;-59
2021/07/21 05:18:46;;;;;;;19.48;15.05;;;;;;;18.63;84.20;98822.52;129767;1093;22561;-60
2021/07/21 05:21:31;;;;;;;20.33;15.33;;;;;;;18.64;84.49;98821.38;129735;1093;22575;-60
2021/07/21 05:24:00;;;;;;;19.43;14.45;;;;;;;18.66;84.18;98821.05;129630;1093;114230;-61
2021/07/21 05:26:29;;;;;;;19.98;14.78;;;;;;;18.67;83.59;98817.97;129775;1092;23353;-60
2021/07/21 05:29:05;;;;;;;20.63;14.73;;;;;;;18.68;83.53;98818.78;129630;1093;114340;-60
2021/07/21 05:31:52;;;;;;;22.70;14.43;;;;;;;18.70;83.60;98813.75;129759;1092;23416;-60
2021/07/21 05:34:27;;;;;;;19.93;14.75;;;;;;;18.74;83.07;98819.43;129622;1093;114302;-60
2021/07/21 05:37:16;;;;;;;19.28;12.93;;;;;;;18.78;82.71;98812.09;129626;1092;22633;-60
2021/07/21 05:39:54;;;;;;;19.13;12.87;;;;;;;18.81;82.35;98819.72;128214;1093;24187;-59
2021/07/21 05:42:35;;;;;;;20.73;13.00;;;;;;;18.84;82.44;98819.88;129626;1093;113744;-59
2021/07/21 05:45:05;;;;;;;18.23;11.75;;;;;;;18.89;81.73;98822.47;129713;1093;22543;-61
2021/07/21 05:47:34;;;;;;;16.90;11.58;;;;;;;18.94;80.44;98826.98;129627;1093;113947;-61
2021/07/21 05:50:06;;;;;;;22.20;11.33;;;;;;;18.97;79.81;98823.56;129702;1093;22574;-61
2021/07/21 05:52:52;;;;;;;13.83;10.60;;;;;;;19.03;79.73;98825.02;129581;1093;114190;-60
2021/07/21 05:55:24;;;;;;;13.98;10.08;;;;;;;19.08;78.98;98816.53;129747;1093;22517;-59
2021/07/21 05:57:53;;;;;;;14.75;10.58;;;;;;;19.15;78.70;98816.03;129738;1093;23514;-60
2021/07/21 06:00:23;;;;;;;15.30;9.30;;;;;;;19.20;77.76;98822.16;129627;1093;114346;-62
2021/07/21 06:02:56;;;;;;;17.13;9.60;;;;;;;19.27;77.38;98814.19;129733;1093;22558;-60
2021/07/21 06:05:45;;;;;;;15.50;10.40;;;;;;;19.37;77.25;98815.75;129546;1093;114041;-60
2021/07/21 06:08:33;;;;;;;11.23;9.05;;;;;;;19.54;76.13;98820.41;129623;1092;22907;-60
2021/07/21 06:11:10;;;;;;;19.25;9.80;;;;;;;19.79;75.88;98819.42;129580;1092;113731;-61
2021/07/21 06:13:40;;;;;;;12.90;9.33;;;;;;;20.06;74.01;98818.08;129771;1092;22528;-61
2021/07/21 06:16:13;;;;;;;12.08;9.35;;;;;;;20.28;74.50;98828.00;129770;1093;22656;-60
2021/07/21 06:18:44;;;;;;;11.83;8.15;;;;;;;20.46;73.48;98827.55;129686;1093;113534;-61
2021/07/21 06:21:14;;;;;;;12.03;9.00;;;;;;;20.59;72.13;98831.16;129693;1092;22644;-61
2021/07/21 06:24:18;;;;;;;11.43;8.65;;;;;;;20.70;72.11;98828.77;129660;1091;113630;-61
2021/07/21 06:26:47;;;;;;;16.95;9.20;;;;;;;20.80;72.16;98831.90;129740;1093;22581;-61
2021/07/21 06:29:29;;;;;;;11.45;8.40;;;;;;;20.88;70.58;98830.20;129660;1092;114961;-61
2021/07/21 06:31:59;;;;;;;16.65;9.35;;;;;;;20.89;70.57;98837.36;129759;1093;22559;-62
2021/07/21 06:34:28;;;;;;;12.43;8.47;;;;;;;20.84;70.05;98820.95;129581;1093;114409;-61
2021/07/21 06:37:01;;;;;;;12.78;8.75;;;;;;;20.87;69.87;98822.23;129768;1092;22520;-61
2021/07/21 06:39:30;;;;;;;12.88;9.10;;;;;;;20.88;70.27;98823.86;129755;1093;22582;-61
2021/07/21 06:41:59;;;;;;;12.65;8.83;;;;;;;20.89;70.61;98825.48;129611;1093;114185;-61
2021/07/21 06:44:30;;;;;;;13.78;9.35;;;;;;;20.90;70.32;98822.36;129729;1093;22604;-61
2021/07/21 06:47:25;;;;;;;10.65;8.38;;;;;;;20.95;70.14;98819.36;129613;1093;114157;-61
2021/07/21 06:50:09;;;;;;;14.55;9.23;;;;;;;21.00;70.24;98812.80;129789;1093;22516;-61
2021/07/21 06:52:39;;;;;;;13.28;8.73;;;;;;;21.09;70.31;98819.03;129667;1092;114247;-61
2021/07/21 06:55:15;;;;;;;;;;;;;;;21.17;69.69;98818.13;129776;1093;22629;-61
2021/07/21 06:57:46;;;;;;;16.48;9.75;;;;;;;21.22;69.21;98828.19;129751;1093;21265;-61
2021/07/21 07:00:35;;;;;;;11.35;8.43;;;;;;;21.22;68.83;98819.88;129690;1093;114595;-61
2021/07/21 07:03:10;;;;;;;18.60;9.73;;;;;;;21.18;68.59;98816.98;129784;1092;22601;-62
2021/07/21 07:05:42;;;;;;;15.48;9.25;;;;;;;21.18;69.68;98819.75;129631;1093;113817;-61
2021/07/21 07:08:30;;;;;;;13.75;9.28;;;;;;;21.21;68.55;98832.92;129785;1093;24468;-61
2021/07/21 07:11:21;;;;;;;39.13;11.40;;;;;;;21.21;66.52;98819.06;129672;1092;113988;-61
2021/07/21 07:13:50;;;;;;;57.33;13.25;;;;;;;21.20;67.25;98849.91;129745;1093;22590;-62
2021/07/21 07:16:19;;;;;;;17.87;9.07;;;;;;;21.22;66.32;98826.23;129780;1092;22590;-61
2021/07/21 07:18:48;;;;;;;12.15;7.85;;;;;;;21.28;66.56;98826.82;129667;1093;113360;-61
2021/07/21 07:21:17;;;;;;;11.50;8.40;;;;;;;21.32;65.71;98833.30;129782;1092;22624;-62
2021/07/21 07:23:47;;;;;;;12.90;8.05;;;;;;;21.32;66.26;98823.02;129685;1093;113954;-62
2021/07/21 07:26:16;;;;;;;10.83;7.73;;;;;;;21.46;66.38;98833.76;129771;1091;22568;-61
2021/07/21 07:28:45;;;;;;;13.75;8.45;;;;;;;21.51;65.10;98845.41;129623;1092;114183;-62
2021/07/21 07:31:14;;;;;;;13.25;7.78;;;;;;;21.55;64.07;98834.44;129769;1092;22578;-62
2021/07/21 07:33:43;;;;;;;11.45;8.33;;;;;;;21.60;63.69;98839.77;129790;1093;22512;-62
2021/07/21 07:36:14;;;;;;;18.80;8.83;;;;;;;21.68;64.82;98835.23;129643;1093;114472;-62
2021/07/21 07:38:43;;;;;;;22.65;8.50;;;;;;;21.79;64.59;98837.18;129763;1092;23796;-62
2021/07/21 07:41:12;;;;;;;10.68;7.33;;;;;;;21.86;64.57;98829.09;125711;1093;113842;-61
2021/07/21 07:43:42;;;;;;;9.35;7.18;;;;;;;21.92;64.79;98826.91;125155;1093;23224;-62
2021/07/21 07:46:11;;;;;;;14.13;7.63;;;;;;;21.88;64.51;98820.43;125271;1092;27151;-61
2021/07/21 07:48:41;;;;;;;12.65;8.18;;;;;;;21.90;64.46;98837.53;125136;1092;113758;-61
2021/07/21 07:51:10;;;;;;;9.55;7.13;;;;;;;21.82;64.74;98836.48;125063;1092;22928;-61
2021/07/21 07:53:39;;;;;;;65.13;12.20;;;;;;;21.73;65.23;98835.01;125113;1092;114038;-60
2021/07/21 07:56:08;;;;;;;15.48;7.95;;;;;;;21.65;64.96;98831.19;125070;1092;22864;-60
2021/07/21 07:58:38;;;;;;;10.58;7.48;;;;;;;21.56;65.91;98827.74;125006;1093;114235;-61
2021/07/21 08:01:07;;;;;;;42.05;10.23;;;;;;;21.57;66.16;98832.13;129704;1092;23455;-61
2021/07/21 08:03:36;;;;;;;95.43;14.45;;;;;;;21.55;66.28;98837.21;129803;1092;23436;-61
2021/07/21 08:06:05;;;;;;;9.05;6.85;;;;;;;21.54;65.87;98838.36;129632;1092;114248;-61
2021/07/21 08:08:34;;;;;;;9.98;7.28;;;;;;;21.51;65.94;98836.28;129760;1092;22565;-61
2021/07/21 08:11:04;;;;;;;13.98;7.40;;;;;;;21.47;66.24;98836.19;129656;1093;114256;-61
2021/07/21 08:13:33;;;;;;;9.73;7.43;;;;;;;21.47;66.47;98847.28;129807;1093;22612;-62
2021/07/21 08:16:03;;;;;;;14.13;7.90;;;;;;;21.48;66.73;98845.31;129800;1093;23255;-62
2021/07/21 08:18:32;;;;;;;12.35;7.45;;;;;;;21.50;66.65;98849.33;129648;1093;114736;-61
2021/07/21 08:21:00;;;;;;;11.83;7.28;;;;;;;21.52;66.31;98852.57;129708;1093;22537;-61
2021/07/21 08:23:29;;;;;;;12.70;7.45;;;;;;;21.56;66.70;98851.88;129654;1092;115034;-61
2021/07/21 08:25:58;;;;;;;28.03;9.50;;;;;;;21.66;66.11;98857.77;129787;1093;22542;-62
2021/07/21 08:28:29;;;;;;;10.47;7.30;;;;;;;21.80;66.10;98849.08;129651;1093;113890;-61
2021/07/21 08:30:58;;;;;;;13.15;7.95;;;;;;;21.94;65.53;98848.71;129770;1093;22519;-62
2021/07/21 08:33:27;;;;;;;9.43;7.18;;;;;;;22.02;65.53;98845.86;129773;1093;22568;-62
2021/07/21 08:35:56;;;;;;;11.00;7.33;;;;;;;22.10;65.28;98846.86;129713;1093;114014;-61
2021/07/21 08:38:25;;;;;;;13.55;7.98;;;;;;;22.15;65.04;98852.18;129725;1093;23082;-62
2021/07/21 08:40:54;;;;;;;39.00;10.20;;;;;;;22.15;65.36;98858.54;126270;1091;114298;-61
2021/07/21 08:43:27;;;;;;;44.45;12.40;;;;;;;22.13;65.12;98849.75;129761;1092;22565;-61
2021/07/21 08:45:57;;;;;;;15.83;8.00;;;;;;;22.16;65.47;98848.25;129790;1092;22528;-61
2021/07/21 08:48:25;;;;;;;43.68;11.10;;;;;;;22.20;65.70;98852.75;129582;1093;114400;-62
2021/07/21 08:50:54;;;;;;;9.43;6.65;;;;;;;22.27;65.63;98846.59;129785;1093;22523;-61
2021/07/21 08:53:23;;;;;;;7.98;6.05;;;;;;;22.32;65.60;98846.35;129635;1092;114103;-61
2021/07/21 08:55:53;;;;;;;9.88;7.15;;;;;;;22.36;65.43;98849.23;129695;1093;23406;-61
2021/07/21 08:58:22;;;;;;;8.73;6.48;;;;;;;22.38;65.10;98849.67;129712;1096;22563;-61
2021/07/21 09:00:55;;;;;;;11.00;6.80;;;;;;;22.41;65.61;98851.75;129591;1095;113892;-61
2021/07/21 09:03:24;;;;;;;8.00;6.83;;;;;;;22.46;66.02;98852.31;129736;1096;22573;-61
2021/07/21 09:05:53;;;;;;;9.90;6.90;;;;;;;22.55;65.07;98864.06;129660;1095;113701;-61
2021/07/21 09:08:22;;;;;;;12.15;6.90;;;;;;;22.59;64.87;98855.84;129739;1095;22566;-61
2021/07/21 09:10:51;;;;;;;65.78;15.20;;;;;;;22.60;65.20;98851.91;129592;1096;114169;-61
2021/07/21 09:13:20;;;;;;;19.93;8.70;;;;;;;22.62;65.89;98852.37;129723;1096;22568;-60
2021/07/21 09:15:49;;;;;;;8.65;6.50;;;;;;;22.70;65.88;98859.72;129650;1095;22709;-61
2021/07/21 09:18:18;;;;;;;197.43;31.03;;;;;;;22.75;66.30;98847.56;129654;1095;114289;-61
2021/07/21 09:20:56;;;;;;;38.08;10.13;;;;;;;22.86;65.18;98857.02;129769;1096;23034;-61
2021/07/21 09:23:53;;;;;;;11.83;6.35;;;;;;;22.84;64.32;98865.70;129658;1096;114379;-61
2021/07/21 09:26:22;;;;;;;9.45;6.93;;;;;;;22.78;64.46;98860.77;129719;1096;22589;-60
2021/07/21 09:28:51;;;;;;;13.65;7.18;;;;;;;22.70;64.42;98859.72;129642;1093;113751;-61
2021/07/21 09:31:37;;;;;;;103.20;18.83;;;;;;;;;;129792;1093;22662;-63
2021/07/21 09:34:16;;;;;;;59.40;13.08;;;;;;;22.65;65.13;98864.74;129792;1092;22501;-61
2021/07/21 09:36:45;;;;;;;90.83;18.65;;;;;;;22.64;65.87;98855.61;129675;1093;114048;-60
2021/07/21 09:39:15;;;;;;;9.93;6.75;;;;;;;22.67;66.46;98859.62;129819;1092;22618;-60
2021/07/21 09:41:53;;;;;;;10.98;7.43;;;;;;;22.66;65.99;98858.80;129627;1092;113784;-59
2021/07/21 09:44:42;;;;;;;8.35;6.68;;;;;;;22.63;65.62;98862.31;129743;1093;22539;-60
2021/07/21 09:47:17;;;;;;;11.03;6.93;;;;;;;22.57;66.12;98855.39;129720;1092;113808;-60
2021/07/21 09:49:46;;;;;;;15.45;7.48;;;;;;;22.53;66.03;98858.05;129812;1093;22567;-60
2021/07/21 09:52:23;;;;;;;11.90;7.25;;;;;;;22.50;66.12;98852.42;129784;1093;22676;-60
2021/07/21 09:55:10;;;;;;;12.20;6.73;;;;;;;22.50;66.33;98849.65;129690;1093;113703;-60
2021/07/21 09:57:39;;;;;;;10.93;6.60;;;;;;;22.53;66.65;98841.40;129776;1093;23113;-62
2021/07/21 10:00:25;;;;;;;11.10;6.85;;;;;;;22.58;65.99;98846.70;129706;1093;113986;-60
2021/07/21 10:03:13;;;;;;;13.75;6.20;;;;;;;22.65;66.63;98842.53;129772;1093;22629;-61
2021/07/21 10:06:01;;;;;;;13.98;7.78;;;;;;;22.76;66.51;98840.84;129712;1093;114224;-61
2021/07/21 10:08:34;;;;;;;16.95;7.35;;;;;;;22.85;65.95;98839.54;129830;1093;22540;-61
2021/07/21 10:11:28;;;;;;;18.45;8.38;;;;;;;22.93;64.47;98834.19;129660;1093;113956;-61
2021/07/21 10:14:03;;;;;;;129.75;22.80;;;;;;;23.00;63.94;98831.58;129802;1092;22686;-61
2021/07/21 10:16:46;;;;;;;11.57;6.73;;;;;;;23.09;65.30;98830.23;129838;1093;22553;-61
2021/07/21 10:19:26;;;;;;;12.23;6.55;;;;;;;23.24;65.52;98834.19;129724;1092;113832;-61
2021/07/21 10:21:57;;;;;;;8.38;5.88;;;;;;;23.38;63.48;98840.10;129735;1093;22932;-61
2021/07/21 10:24:32;;;;;;;9.20;6.40;;;;;;;23.44;62.42;98835.89;129730;1093;113849;-62
2021/07/21 10:27:02;;;;;;;10.40;6.63;;;;;;;23.43;63.33;98825.94;129773;1093;22588;-62
2021/07/21 10:29:31;;;;;;;9.90;6.45;;;;;;;23.47;63.77;98829.63;129703;1093;114312;-61
2021/07/21 10:32:00;;;;;;;9.10;6.30;;;;;;;23.55;63.05;98839.77;129796;1093;23852;-58
2021/07/21 10:34:28;;;;;;;6.65;5.93;;;;;;;23.52;62.43;98834.92;129789;1093;23216;-59
2021/07/21 10:36:57;;;;;;;10.78;6.33;;;;;;;23.43;62.14;98834.28;129678;1092;113821;-60
2021/07/21 10:39:36;;;;;;;11.98;6.73;;;;;;;23.33;62.38;98831.24;129814;1093;22654;-59
2021/07/21 10:42:09;;;;;;;7.88;6.40;;;;;;;23.23;62.49;98844.50;129664;1093;114119;-59
2021/07/21 10:44:40;;;;;;;10.03;6.40;;;;;;;23.16;61.25;98835.19;129778;1093;23924;-60
2021/07/21 10:47:24;;;;;;;7.95;6.63;;;;;;;23.11;61.72;98832.66;129652;1092;114046;-59
2021/07/21 10:50:09;;;;;;;10.38;6.55;;;;;;;23.08;61.09;98842.55;129809;1092;23414;-59
2021/07/21 10:55:21;;;;;;;10.15;6.70;;;;;;;23.05;60.96;98848.81;129630;1093;115427;-59
2021/07/21 11:00:37;;;;;;;8.67;6.40;;;;;;;23.13;62.41;98828.36;129702;1092;113725;-60
2021/07/21 11:03:24;;;;;;;8.58;5.85;;;;;;;23.25;62.88;98831.05;129806;1093;22590;-57
2021/07/21 11:05:57;;;;;;;8.85;7.03;;;;;;;23.41;62.80;98831.05;129704;1093;113892;-59
2021/07/21 11:08:26;;;;;;;6.58;5.60;;;;;;;23.51;61.80;98826.97;129805;1093;22579;-59
2021/07/21 11:10:56;;;;;;;9.40;5.65;;;;;;;23.57;61.71;98831.88;129681;1092;114130;-60
2021/07/21 11:13:28;;;;;;;8.85;6.23;;;;;;;23.59;61.37;98850.98;129734;1093;22521;-60
2021/07/21 11:15:57;;;;;;;10.15;5.33;;;;;;;23.53;61.12;98850.44;129735;1092;22530;-60
2021/07/21 11:18:26;;;;;;;10.05;5.58;;;;;;;23.40;61.26;98839.75;129592;1093;114674;-60
2021/07/21 11:21:11;;;;;;;7.93;5.40;;;;;;;23.30;61.56;98841.11;129795;1092;22561;-59
2021/07/21 11:23:47;;;;;;;9.93;5.05;;;;;;;23.21;61.58;98844.08;129690;1092;114659;-59
2021/07/21 11:26:31;;;;;;;6.88;5.18;;;;;;;23.16;62.00;98844.33;129756;1091;22557;-59
2021/07/21 11:29:22;;;;;;;8.90;4.90;;;;;;;23.11;61.21;98841.80;129685;1093;114075;-59
2021/07/21 11:31:53;;;;;;;7.65;5.15;;;;;;;23.06;61.50;98838.50;129751;1092;23071;-60
2021/07/21 11:34:29;;;;;;;8.10;5.10;;;;;;;23.05;61.63;98842.44;129710;1093;22596;-59
2021/07/21 11:37:02;;;;;;;11.55;5.50;;;;;;;23.06;61.58;98849.62;129607;1093;114028;-60
2021/07/21 11:39:44;;;;;;;8.55;5.05;;;;;;;23.09;62.08;98841.35;129726;1093;22534;-61
2021/07/21 11:42:33;;;;;;;7.98;5.00;;;;;;;23.17;61.88;98857.06;129651;1093;113801;-59
2021/07/21 11:45:18;;;;;;;27.35;9.05;;;;;;;23.24;60.57;98853.64;129763;1093;22605;-59
2021/07/21 11:47:56;;;;;;;10.03;5.40;;;;;;;23.18;60.93;98855.09;129627;1093;113858;-60
2021/07/21 11:50:32;;;;;;;14.65;6.13;;;;;;;23.13;61.23;98864.49;129743;1093;22547;-59
2021/07/21 11:53:05;;;;;;;21.90;7.03;;;;;;;23.09;60.80;98866.36;129645;1092;116307;-59
2021/07/21 11:55:35;;;;;;;9.58;5.10;;;;;;;23.07;60.70;98860.38;129692;1093;22608;-60
2021/07/21 11:58:14;;;;;;;8.00;5.33;;;;;;;23.05;60.55;98867.45;129743;1093;22617;-60